sensor_id;sensor_type;location;lat;lon;timestamp;P1;durP1;ratioP1;P2;durP2;ratioP2
19414;SDS011;9843;48.882;12.592;2024-02-28T00:02:22;47.10;;;29.90;;
19414;SDS011;9843;48.882;12.592;2024-02-28T00:04:51;44.67;;;29.67;;
19414;SDS011;9843;48.882;12.592;2024-02-28T00:07:18;42.30;;;30.40;;
19414;SDS011;9843;48.882;12.592;2024-02-28T00:09:45;46.57;;;27.83;;
19414;SDS011;9843;48.882;12.592;2024-02-28T00:12:12;51.73;;;31.57;;
19414;SDS011;9843;48.882;12.592;2024-02-28T00:14:42;49.50;;;28.50;;
19414;SDS011;9843;48.882;12.592;2024-02-28T00:17:09;49.53;;;30.40;;
19414;SDS011;9843;48.882;12.592;2024-02-28T00:19:36;48.63;;;29.23;;
19414;SDS011;9843;48.882;12.592;2024-02-28T00:22:05;51.97;;;31.10;;
19414;SDS011;9843;48.882;12.592;2024-02-28T00:24:32;43.10;;;29.80;;
19414;SDS011;9843;48.882;12.592;2024-02-28T00:26:59;53.47;;;33.27;;
19414;SDS011;9843;48.882;12.592;2024-02-28T00:29:26;48.77;;;29.33;;
19414;SDS011;9843;48.882;12.592;2024-02-28T00:31:54;57.33;;;32.50;;
19414;SDS011;9843;48.882;12.592;2024-02-28T00:34:21;48.23;;;31.10;;
19414;SDS011;9843;48.882;12.592;2024-02-28T00:36:48;61.57;;;35.13;;
19414;SDS011;9843;48.882;12.592;2024-02-28T00:39:16;62.33;;;35.10;;
19414;SDS011;9843;48.882;12.592;2024-02-28T00:41:44;52.20;;;32.83;;
19414;SDS011;9843;48.882;12.592;2024-02-28T00:44:11;53.27;;;33.27;;
19414;SDS011;9843;48.882;12.592;2024-02-28T00:46:38;52.60;;;33.43;;
19414;SDS011;9843;48.882;12.592;2024-02-28T00:49:06;55.57;;;33.17;;
19414;SDS011;9843;48.882;12.592;2024-02-28T00:51:33;56.93;;;33.73;;
19414;SDS011;9843;48.882;12.592;2024-02-28T00:54:01;41.67;;;30.13;;
19414;SDS011;9843;48.882;12.592;2024-02-28T00:56:30;47.07;;;31.73;;
19414;SDS011;9843;48.882;12.592;2024-02-28T00:58:57;47.63;;;35.13;;
19414;SDS011;9843;48.882;12.592;2024-02-28T01:01:24;53.70;;;35.73;;
19414;SDS011;9843;48.882;12.592;2024-02-28T01:03:51;57.13;;;34.53;;
19414;SDS011;9843;48.882;12.592;2024-02-28T01:06:19;56.17;;;31.57;;
19414;SDS011;9843;48.882;12.592;2024-02-28T01:08:46;53.87;;;34.40;;
19414;SDS011;9843;48.882;12.592;2024-02-28T01:11:16;53.93;;;31.87;;
19414;SDS011;9843;48.882;12.592;2024-02-28T01:13:44;63.70;;;38.20;;
19414;SDS011;9843;48.882;12.592;2024-02-28T01:16:12;69.90;;;38.17;;
19414;SDS011;9843;48.882;12.592;2024-02-28T01:18:39;57.83;;;33.30;;
19414;SDS011;9843;48.882;12.592;2024-02-28T01:21:06;60.23;;;32.53;;
19414;SDS011;9843;48.882;12.592;2024-02-28T01:23:33;57.10;;;37.23;;
19414;SDS011;9843;48.882;12.592;2024-02-28T01:26:00;48.57;;;33.63;;
19414;SDS011;9843;48.882;12.592;2024-02-28T01:28:29;64.60;;;37.50;;
19414;SDS011;9843;48.882;12.592;2024-02-28T01:30:57;61.37;;;37.57;;
19414;SDS011;9843;48.882;12.592;2024-02-28T01:33:25;68.57;;;38.83;;
19414;SDS011;9843;48.882;12.592;2024-02-28T01:35:52;55.53;;;36.67;;
19414;SDS011;9843;48.882;12.592;2024-02-28T01:38:20;51.73;;;33.97;;
19414;SDS011;9843;48.882;12.592;2024-02-28T01:40:47;50.63;;;34.67;;
19414;SDS011;9843;48.882;12.592;2024-02-28T01:43:14;58.90;;;34.20;;
19414;SDS011;9843;48.882;12.592;2024-02-28T01:45:42;52.00;;;34.67;;
19414;SDS011;9843;48.882;12.592;2024-02-28T01:48:11;52.50;;;34.17;;
19414;SDS011;9843;48.882;12.592;2024-02-28T01:50:38;49.93;;;32.93;;
19414;SDS011;9843;48.882;12.592;2024-02-28T01:53:06;64.83;;;36.40;;
19414;SDS011;9843;48.882;12.592;2024-02-28T01:55:33;61.03;;;32.80;;
19414;SDS011;9843;48.882;12.592;2024-02-28T01:58:01;54.17;;;35.23;;
19414;SDS011;9843;48.882;12.592;2024-02-28T02:00:30;49.53;;;34.57;;
19414;SDS011;9843;48.882;12.592;2024-02-28T02:03:00;55.40;;;36.93;;
19414;SDS011;9843;48.882;12.592;2024-02-28T02:05:29;52.93;;;35.13;;
19414;SDS011;9843;48.882;12.592;2024-02-28T02:07:56;54.90;;;34.03;;
19414;SDS011;9843;48.882;12.592;2024-02-28T02:10:24;66.23;;;37.23;;
19414;SDS011;9843;48.882;12.592;2024-02-28T02:12:51;58.10;;;37.20;;
19414;SDS011;9843;48.882;12.592;2024-02-28T02:15:18;63.30;;;36.97;;
19414;SDS011;9843;48.882;12.592;2024-02-28T02:17:46;63.87;;;36.77;;
19414;SDS011;9843;48.882;12.592;2024-02-28T02:20:14;57.67;;;36.03;;
19414;SDS011;9843;48.882;12.592;2024-02-28T02:22:42;58.93;;;37.97;;
19414;SDS011;9843;48.882;12.592;2024-02-28T02:25:10;60.67;;;35.00;;
19414;SDS011;9843;48.882;12.592;2024-02-28T02:27:37;55.70;;;35.13;;
19414;SDS011;9843;48.882;12.592;2024-02-28T02:30:05;68.57;;;37.07;;
19414;SDS011;9843;48.882;12.592;2024-02-28T02:32:32;55.70;;;35.57;;
19414;SDS011;9843;48.882;12.592;2024-02-28T02:34:59;58.23;;;34.40;;
19414;SDS011;9843;48.882;12.592;2024-02-28T02:37:27;55.97;;;35.70;;
19414;SDS011;9843;48.882;12.592;2024-02-28T02:39:55;63.60;;;36.13;;
19414;SDS011;9843;48.882;12.592;2024-02-28T02:42:23;55.10;;;36.40;;
19414;SDS011;9843;48.882;12.592;2024-02-28T02:44:50;59.07;;;37.23;;
19414;SDS011;9843;48.882;12.592;2024-02-28T02:47:17;60.30;;;33.03;;
19414;SDS011;9843;48.882;12.592;2024-02-28T02:49:44;59.23;;;35.73;;
19414;SDS011;9843;48.882;12.592;2024-02-28T02:52:11;61.30;;;38.17;;
19414;SDS011;9843;48.882;12.592;2024-02-28T02:54:38;58.67;;;33.63;;
19414;SDS011;9843;48.882;12.592;2024-02-28T02:57:07;57.63;;;32.90;;
19414;SDS011;9843;48.882;12.592;2024-02-28T02:59:35;51.80;;;32.73;;
19414;SDS011;9843;48.882;12.592;2024-02-28T03:02:03;52.10;;;32.63;;
19414;SDS011;9843;48.882;12.592;2024-02-28T03:04:30;52.30;;;33.10;;
19414;SDS011;9843;48.882;12.592;2024-02-28T03:06:57;51.53;;;31.60;;
19414;SDS011;9843;48.882;12.592;2024-02-28T03:09:26;56.67;;;36.33;;
19414;SDS011;9843;48.882;12.592;2024-02-28T03:11:56;58.90;;;35.60;;
19414;SDS011;9843;48.882;12.592;2024-02-28T03:14:25;53.80;;;34.07;;
19414;SDS011;9843;48.882;12.592;2024-02-28T03:16:52;50.40;;;32.83;;
19414;SDS011;9843;48.882;12.592;2024-02-28T03:19:19;59.77;;;36.60;;
19414;SDS011;9843;48.882;12.592;2024-02-28T03:21:47;55.43;;;37.13;;
19414;SDS011;9843;48.882;12.592;2024-02-28T03:24:15;60.23;;;35.63;;
19414;SDS011;9843;48.882;12.592;2024-02-28T03:26:42;57.13;;;34.50;;
19414;SDS011;9843;48.882;12.592;2024-02-28T03:29:09;49.63;;;34.13;;
19414;SDS011;9843;48.882;12.592;2024-02-28T03:31:38;48.30;;;33.20;;
19414;SDS011;9843;48.882;12.592;2024-02-28T03:34:05;55.70;;;35.40;;
19414;SDS011;9843;48.882;12.592;2024-02-28T03:36:32;53.93;;;34.43;;
19414;SDS011;9843;48.882;12.592;2024-02-28T03:39:00;46.77;;;31.60;;
19414;SDS011;9843;48.882;12.592;2024-02-28T03:41:27;46.40;;;30.83;;
19414;SDS011;9843;48.882;12.592;2024-02-28T03:43:55;51.73;;;34.60;;
19414;SDS011;9843;48.882;12.592;2024-02-28T03:46:22;49.47;;;31.20;;
19414;SDS011;9843;48.882;12.592;2024-02-28T03:48:50;42.10;;;29.63;;
19414;SDS011;9843;48.882;12.592;2024-02-28T03:51:18;48.07;;;33.27;;
19414;SDS011;9843;48.882;12.592;2024-02-28T03:53:46;55.97;;;29.07;;
19414;SDS011;9843;48.882;12.592;2024-02-28T03:56:13;41.90;;;26.67;;
19414;SDS011;9843;48.882;12.592;2024-02-28T03:58:48;50.47;;;27.67;;
19414;SDS011;9843;48.882;12.592;2024-02-28T04:01:16;35.23;;;23.87;;
19414;SDS011;9843;48.882;12.592;2024-02-28T04:03:43;41.20;;;29.90;;
19414;SDS011;9843;48.882;12.592;2024-02-28T04:06:13;45.33;;;28.43;;
19414;SDS011;9843;48.882;12.592;2024-02-28T04:08:40;39.87;;;24.23;;
19414;SDS011;9843;48.882;12.592;2024-02-28T04:11:07;35.23;;;25.23;;
19414;SDS011;9843;48.882;12.592;2024-02-28T04:13:35;34.13;;;24.77;;
19414;SDS011;9843;48.882;12.592;2024-02-28T04:16:02;29.70;;;21.27;;
19414;SDS011;9843;48.882;12.592;2024-02-28T04:18:29;28.53;;;21.90;;
19414;SDS011;9843;48.882;12.592;2024-02-28T04:20:58;27.60;;;22.13;;
19414;SDS011;9843;48.882;12.592;2024-02-28T04:23:27;29.57;;;24.33;;
19414;SDS011;9843;48.882;12.592;2024-02-28T04:25:55;27.63;;;20.97;;
19414;SDS011;9843;48.882;12.592;2024-02-28T04:28:22;36.40;;;22.93;;
19414;SDS011;9843;48.882;12.592;2024-02-28T04:30:49;57.83;;;27.50;;
19414;SDS011;9843;48.882;12.592;2024-02-28T04:33:17;35.27;;;26.50;;
19414;SDS011;9843;48.882;12.592;2024-02-28T04:35:44;37.53;;;24.33;;
19414;SDS011;9843;48.882;12.592;2024-02-28T04:38:11;32.90;;;26.13;;
19414;SDS011;9843;48.882;12.592;2024-02-28T04:40:40;42.03;;;25.77;;
19414;SDS011;9843;48.882;12.592;2024-02-28T04:43:07;42.83;;;27.43;;
19414;SDS011;9843;48.882;12.592;2024-02-28T04:45:34;38.73;;;24.83;;
19414;SDS011;9843;48.882;12.592;2024-02-28T04:48:02;37.83;;;27.50;;
19414;SDS011;9843;48.882;12.592;2024-02-28T04:50:30;32.73;;;23.30;;
19414;SDS011;9843;48.882;12.592;2024-02-28T04:52:59;43.33;;;26.30;;
19414;SDS011;9843;48.882;12.592;2024-02-28T04:55:28;33.03;;;23.80;;
19414;SDS011;9843;48.882;12.592;2024-02-28T04:57:57;38.00;;;26.40;;
19414;SDS011;9843;48.882;12.592;2024-02-28T05:00:24;48.77;;;26.43;;
19414;SDS011;9843;48.882;12.592;2024-02-28T05:02:51;36.87;;;24.70;;
19414;SDS011;9843;48.882;12.592;2024-02-28T05:05:18;36.27;;;27.23;;
19414;SDS011;9843;48.882;12.592;2024-02-28T05:07:45;41.03;;;25.80;;
19414;SDS011;9843;48.882;12.592;2024-02-28T05:10:13;43.17;;;26.57;;
19414;SDS011;9843;48.882;12.592;2024-02-28T05:12:40;66.40;;;29.93;;
19414;SDS011;9843;48.882;12.592;2024-02-28T05:15:09;44.63;;;26.87;;
19414;SDS011;9843;48.882;12.592;2024-02-28T05:17:37;45.53;;;26.03;;
19414;SDS011;9843;48.882;12.592;2024-02-28T05:20:04;45.30;;;29.10;;
19414;SDS011;9843;48.882;12.592;2024-02-28T05:22:32;49.40;;;27.33;;
19414;SDS011;9843;48.882;12.592;2024-02-28T05:24:59;65.57;;;29.73;;
19414;SDS011;9843;48.882;12.592;2024-02-28T05:27:26;43.43;;;29.87;;
19414;SDS011;9843;48.882;12.592;2024-02-28T05:29:53;36.37;;;27.47;;
19414;SDS011;9843;48.882;12.592;2024-02-28T05:32:22;41.80;;;26.33;;
19414;SDS011;9843;48.882;12.592;2024-02-28T05:34:49;46.60;;;29.40;;
19414;SDS011;9843;48.882;12.592;2024-02-28T05:37:16;50.23;;;28.90;;
19414;SDS011;9843;48.882;12.592;2024-02-28T05:39:44;38.87;;;24.27;;
19414;SDS011;9843;48.882;12.592;2024-02-28T05:42:11;42.47;;;26.03;;
19414;SDS011;9843;48.882;12.592;2024-02-28T05:44:39;51.43;;;28.70;;
19414;SDS011;9843;48.882;12.592;2024-02-28T05:47:06;39.17;;;26.70;;
19414;SDS011;9843;48.882;12.592;2024-02-28T05:49:36;34.93;;;26.13;;
19414;SDS011;9843;48.882;12.592;2024-02-28T05:52:04;39.67;;;27.17;;
19414;SDS011;9843;48.882;12.592;2024-02-28T05:54:31;34.37;;;25.17;;
19414;SDS011;9843;48.882;12.592;2024-02-28T05:56:59;36.03;;;24.77;;
19414;SDS011;9843;48.882;12.592;2024-02-28T05:59:26;39.30;;;23.97;;
19414;SDS011;9843;48.882;12.592;2024-02-28T06:01:54;34.30;;;24.93;;
19414;SDS011;9843;48.882;12.592;2024-02-28T06:04:21;30.83;;;22.43;;
19414;SDS011;9843;48.882;12.592;2024-02-28T06:06:51;34.67;;;24.50;;
19414;SDS011;9843;48.882;12.592;2024-02-28T06:09:19;29.33;;;20.63;;
19414;SDS011;9843;48.882;12.592;2024-02-28T06:11:46;30.40;;;21.63;;
19414;SDS011;9843;48.882;12.592;2024-02-28T06:14:13;31.03;;;24.13;;
19414;SDS011;9843;48.882;12.592;2024-02-28T06:16:41;28.47;;;22.70;;
19414;SDS011;9843;48.882;12.592;2024-02-28T06:19:08;32.93;;;25.30;;
19414;SDS011;9843;48.882;12.592;2024-02-28T06:21:36;37.87;;;23.53;;
19414;SDS011;9843;48.882;12.592;2024-02-28T06:24:05;30.90;;;23.70;;
19414;SDS011;9843;48.882;12.592;2024-02-28T06:26:32;30.77;;;23.50;;
19414;SDS011;9843;48.882;12.592;2024-02-28T06:29:00;33.67;;;25.50;;
19414;SDS011;9843;48.882;12.592;2024-02-28T06:31:29;31.13;;;23.73;;
19414;SDS011;9843;48.882;12.592;2024-02-28T06:33:56;31.80;;;24.00;;
19414;SDS011;9843;48.882;12.592;2024-02-28T06:36:24;29.67;;;21.40;;
19414;SDS011;9843;48.882;12.592;2024-02-28T06:38:51;34.20;;;23.63;;
19414;SDS011;9843;48.882;12.592;2024-02-28T06:41:20;32.97;;;22.43;;
19414;SDS011;9843;48.882;12.592;2024-02-28T06:43:47;30.40;;;23.27;;
19414;SDS011;9843;48.882;12.592;2024-02-28T06:46:14;29.57;;;21.53;;
19414;SDS011;9843;48.882;12.592;2024-02-28T06:48:43;30.47;;;21.53;;
19414;SDS011;9843;48.882;12.592;2024-02-28T06:51:10;28.33;;;23.27;;
19414;SDS011;9843;48.882;12.592;2024-02-28T06:53:37;34.60;;;24.07;;
19414;SDS011;9843;48.882;12.592;2024-02-28T06:56:04;30.67;;;23.80;;
19414;SDS011;9843;48.882;12.592;2024-02-28T06:58:35;24.93;;;19.93;;
19414;SDS011;9843;48.882;12.592;2024-02-28T07:01:03;33.20;;;21.27;;
19414;SDS011;9843;48.882;12.592;2024-02-28T07:03:30;26.97;;;21.63;;
19414;SDS011;9843;48.882;12.592;2024-02-28T07:05:57;31.40;;;22.80;;
19414;SDS011;9843;48.882;12.592;2024-02-28T07:08:24;25.27;;;18.30;;
19414;SDS011;9843;48.882;12.592;2024-02-28T07:10:52;26.37;;;22.13;;
19414;SDS011;9843;48.882;12.592;2024-02-28T07:13:19;25.50;;;19.10;;
19414;SDS011;9843;48.882;12.592;2024-02-28T07:15:48;26.13;;;19.50;;
19414;SDS011;9843;48.882;12.592;2024-02-28T07:18:19;21.23;;;18.17;;
19414;SDS011;9843;48.882;12.592;2024-02-28T07:20:46;26.10;;;20.00;;
19414;SDS011;9843;48.882;12.592;2024-02-28T07:23:14;25.50;;;19.10;;
19414;SDS011;9843;48.882;12.592;2024-02-28T07:25:41;27.80;;;19.20;;
19414;SDS011;9843;48.882;12.592;2024-02-28T07:28:08;30.03;;;18.40;;
19414;SDS011;9843;48.882;12.592;2024-02-28T07:30:35;22.53;;;17.33;;
19414;SDS011;9843;48.882;12.592;2024-02-28T07:33:06;20.27;;;18.07;;
19414;SDS011;9843;48.882;12.592;2024-02-28T07:35:43;26.33;;;17.63;;
19414;SDS011;9843;48.882;12.592;2024-02-28T07:38:11;22.33;;;17.37;;
19414;SDS011;9843;48.882;12.592;2024-02-28T07:40:38;25.17;;;18.83;;
19414;SDS011;9843;48.882;12.592;2024-02-28T07:43:05;24.87;;;18.40;;
19414;SDS011;9843;48.882;12.592;2024-02-28T07:45:32;25.73;;;18.57;;
19414;SDS011;9843;48.882;12.592;2024-02-28T07:48:00;20.80;;;17.07;;
19414;SDS011;9843;48.882;12.592;2024-02-28T07:50:29;21.70;;;18.60;;
19414;SDS011;9843;48.882;12.592;2024-02-28T07:52:57;23.33;;;17.67;;
19414;SDS011;9843;48.882;12.592;2024-02-28T07:55:24;25.23;;;19.97;;
19414;SDS011;9843;48.882;12.592;2024-02-28T07:57:51;23.40;;;16.90;;
19414;SDS011;9843;48.882;12.592;2024-02-28T08:00:19;22.20;;;18.27;;
19414;SDS011;9843;48.882;12.592;2024-02-28T08:02:48;28.17;;;20.07;;
19414;SDS011;9843;48.882;12.592;2024-02-28T08:05:15;26.43;;;18.60;;
19414;SDS011;9843;48.882;12.592;2024-02-28T08:07:44;24.53;;;17.67;;
19414;SDS011;9843;48.882;12.592;2024-02-28T08:10:12;26.40;;;18.50;;
19414;SDS011;9843;48.882;12.592;2024-02-28T08:12:40;23.73;;;17.73;;
19414;SDS011;9843;48.882;12.592;2024-02-28T08:15:07;23.27;;;17.80;;
19414;SDS011;9843;48.882;12.592;2024-02-28T08:17:34;28.83;;;20.70;;
19414;SDS011;9843;48.882;12.592;2024-02-28T08:20:02;28.97;;;18.03;;
19414;SDS011;9843;48.882;12.592;2024-02-28T08:22:29;26.83;;;19.43;;
19414;SDS011;9843;48.882;12.592;2024-02-28T08:24:58;25.87;;;18.97;;
19414;SDS011;9843;48.882;12.592;2024-02-28T08:27:26;26.77;;;19.67;;
19414;SDS011;9843;48.882;12.592;2024-02-28T08:29:53;23.83;;;19.37;;
19414;SDS011;9843;48.882;12.592;2024-02-28T08:32:20;23.70;;;18.60;;
19414;SDS011;9843;48.882;12.592;2024-02-28T08:34:47;26.73;;;18.90;;
19414;SDS011;9843;48.882;12.592;2024-02-28T08:37:15;24.87;;;18.67;;
19414;SDS011;9843;48.882;12.592;2024-02-28T08:39:42;27.23;;;20.37;;
19414;SDS011;9843;48.882;12.592;2024-02-28T08:42:11;28.40;;;20.00;;
19414;SDS011;9843;48.882;12.592;2024-02-28T08:44:38;23.80;;;17.03;;
19414;SDS011;9843;48.882;12.592;2024-02-28T08:47:05;21.83;;;16.97;;
19414;SDS011;9843;48.882;12.592;2024-02-28T08:49:34;27.80;;;17.87;;
19414;SDS011;9843;48.882;12.592;2024-02-28T08:52:02;26.40;;;17.67;;
19414;SDS011;9843;48.882;12.592;2024-02-28T08:54:29;21.07;;;16.90;;
19414;SDS011;9843;48.882;12.592;2024-02-28T08:56:58;29.17;;;20.10;;
19414;SDS011;9843;48.882;12.592;2024-02-28T08:59:27;23.90;;;18.43;;
19414;SDS011;9843;48.882;12.592;2024-02-28T09:01:54;25.77;;;17.73;;
19414;SDS011;9843;48.882;12.592;2024-02-28T09:04:21;31.83;;;19.63;;
19414;SDS011;9843;48.882;12.592;2024-02-28T09:06:50;22.43;;;18.87;;
19414;SDS011;9843;48.882;12.592;2024-02-28T09:09:18;36.40;;;22.33;;
19414;SDS011;9843;48.882;12.592;2024-02-28T09:11:45;28.87;;;20.17;;
19414;SDS011;9843;48.882;12.592;2024-02-28T09:14:12;33.63;;;21.43;;
19414;SDS011;9843;48.882;12.592;2024-02-28T09:16:41;24.80;;;17.50;;
19414;SDS011;9843;48.882;12.592;2024-02-28T09:19:09;30.50;;;21.60;;
19414;SDS011;9843;48.882;12.592;2024-02-28T09:21:36;28.90;;;20.53;;
19414;SDS011;9843;48.882;12.592;2024-02-28T09:24:04;30.17;;;21.67;;
19414;SDS011;9843;48.882;12.592;2024-02-28T09:26:31;48.07;;;30.77;;
19414;SDS011;9843;48.882;12.592;2024-02-28T09:28:58;27.20;;;20.77;;
19414;SDS011;9843;48.882;12.592;2024-02-28T09:31:25;24.13;;;17.70;;
19414;SDS011;9843;48.882;12.592;2024-02-28T09:33:54;28.93;;;18.27;;
19414;SDS011;9843;48.882;12.592;2024-02-28T09:36:23;24.43;;;18.00;;
19414;SDS011;9843;48.882;12.592;2024-02-28T09:38:50;24.10;;;17.40;;
19414;SDS011;9843;48.882;12.592;2024-02-28T09:41:17;25.10;;;18.33;;
19414;SDS011;9843;48.882;12.592;2024-02-28T09:43:44;25.27;;;17.63;;
19414;SDS011;9843;48.882;12.592;2024-02-28T09:46:12;22.90;;;17.30;;
19414;SDS011;9843;48.882;12.592;2024-02-28T09:48:40;25.43;;;16.57;;
19414;SDS011;9843;48.882;12.592;2024-02-28T09:51:09;29.67;;;18.03;;
19414;SDS011;9843;48.882;12.592;2024-02-28T09:53:37;24.60;;;16.80;;
19414;SDS011;9843;48.882;12.592;2024-02-28T09:56:05;23.27;;;18.57;;
19414;SDS011;9843;48.882;12.592;2024-02-28T09:58:33;26.67;;;18.07;;
19414;SDS011;9843;48.882;12.592;2024-02-28T10:01:03;26.43;;;19.03;;
19414;SDS011;9843;48.882;12.592;2024-02-28T10:03:32;28.40;;;19.03;;
19414;SDS011;9843;48.882;12.592;2024-02-28T10:05:59;25.93;;;18.10;;
19414;SDS011;9843;48.882;12.592;2024-02-28T10:08:28;30.50;;;19.67;;
19414;SDS011;9843;48.882;12.592;2024-02-28T10:10:56;26.93;;;19.20;;
19414;SDS011;9843;48.882;12.592;2024-02-28T10:13:24;29.17;;;18.93;;
19414;SDS011;9843;48.882;12.592;2024-02-28T10:15:51;29.03;;;18.70;;
19414;SDS011;9843;48.882;12.592;2024-02-28T10:18:20;24.93;;;18.87;;
19414;SDS011;9843;48.882;12.592;2024-02-28T10:20:47;24.03;;;17.67;;
19414;SDS011;9843;48.882;12.592;2024-02-28T10:23:14;29.30;;;19.50;;
19414;SDS011;9843;48.882;12.592;2024-02-28T10:25:44;25.57;;;19.97;;
19414;SDS011;9843;48.882;12.592;2024-02-28T10:28:12;25.47;;;18.43;;
19414;SDS011;9843;48.882;12.592;2024-02-28T10:30:40;29.37;;;19.63;;
19414;SDS011;9843;48.882;12.592;2024-02-28T10:33:11;25.60;;;18.53;;
19414;SDS011;9843;48.882;12.592;2024-02-28T10:35:39;26.73;;;18.33;;
19414;SDS011;9843;48.882;12.592;2024-02-28T10:38:07;20.30;;;15.63;;
19414;SDS011;9843;48.882;12.592;2024-02-28T10:40:37;22.77;;;17.73;;
19414;SDS011;9843;48.882;12.592;2024-02-28T10:43:05;26.10;;;16.93;;
19414;SDS011;9843;48.882;12.592;2024-02-28T10:45:35;23.80;;;15.07;;
19414;SDS011;9843;48.882;12.592;2024-02-28T10:48:02;25.63;;;16.90;;
19414;SDS011;9843;48.882;12.592;2024-02-28T10:50:30;24.33;;;17.23;;
19414;SDS011;9843;48.882;12.592;2024-02-28T10:52:58;20.53;;;16.07;;
19414;SDS011;9843;48.882;12.592;2024-02-28T10:55:27;25.43;;;18.60;;
19414;SDS011;9843;48.882;12.592;2024-02-28T10:58:01;26.00;;;17.10;;
19414;SDS011;9843;48.882;12.592;2024-02-28T11:00:30;20.80;;;16.63;;
19414;SDS011;9843;48.882;12.592;2024-02-28T11:02:58;23.60;;;17.53;;
19414;SDS011;9843;48.882;12.592;2024-02-28T11:05:34;21.57;;;16.37;;
19414;SDS011;9843;48.882;12.592;2024-02-28T11:08:02;29.93;;;17.23;;
19414;SDS011;9843;48.882;12.592;2024-02-28T11:10:30;21.27;;;15.47;;
19414;SDS011;9843;48.882;12.592;2024-02-28T11:12:58;22.60;;;15.60;;
19414;SDS011;9843;48.882;12.592;2024-02-28T11:15:25;24.53;;;16.33;;
19414;SDS011;9843;48.882;12.592;2024-02-28T11:17:54;20.47;;;14.73;;
19414;SDS011;9843;48.882;12.592;2024-02-28T11:20:22;19.57;;;15.03;;
19414;SDS011;9843;48.882;12.592;2024-02-28T11:22:56;19.80;;;13.97;;
19414;SDS011;9843;48.882;12.592;2024-02-28T11:25:24;19.20;;;14.97;;
19414;SDS011;9843;48.882;12.592;2024-02-28T11:27:51;23.00;;;17.70;;
19414;SDS011;9843;48.882;12.592;2024-02-28T11:30:18;22.17;;;16.27;;
19414;SDS011;9843;48.882;12.592;2024-02-28T11:32:45;20.27;;;13.80;;
19414;SDS011;9843;48.882;12.592;2024-02-28T11:35:14;26.80;;;16.37;;
19414;SDS011;9843;48.882;12.592;2024-02-28T11:37:41;17.67;;;13.40;;
19414;SDS011;9843;48.882;12.592;2024-02-28T11:40:08;19.47;;;14.90;;
19414;SDS011;9843;48.882;12.592;2024-02-28T11:42:37;20.43;;;14.87;;
19414;SDS011;9843;48.882;12.592;2024-02-28T11:45:05;24.80;;;14.60;;
19414;SDS011;9843;48.882;12.592;2024-02-28T11:47:32;25.43;;;16.13;;
19414;SDS011;9843;48.882;12.592;2024-02-28T11:50:00;19.00;;;13.73;;
19414;SDS011;9843;48.882;12.592;2024-02-28T11:52:31;20.60;;;13.93;;
19414;SDS011;9843;48.882;12.592;2024-02-28T11:54:58;20.47;;;14.40;;
19414;SDS011;9843;48.882;12.592;2024-02-28T11:57:25;20.70;;;16.07;;
19414;SDS011;9843;48.882;12.592;2024-02-28T11:59:54;21.53;;;16.40;;
19414;SDS011;9843;48.882;12.592;2024-02-28T12:02:22;21.07;;;15.43;;
19414;SDS011;9843;48.882;12.592;2024-02-28T12:04:52;20.97;;;14.73;;
19414;SDS011;9843;48.882;12.592;2024-02-28T12:07:20;20.60;;;14.53;;
19414;SDS011;9843;48.882;12.592;2024-02-28T12:09:49;20.07;;;13.07;;
19414;SDS011;9843;48.882;12.592;2024-02-28T12:12:16;24.53;;;20.20;;
19414;SDS011;9843;48.882;12.592;2024-02-28T12:14:43;26.27;;;17.48;;
19414;SDS011;9843;48.882;12.592;2024-02-28T12:17:10;26.77;;;16.10;;
19414;SDS011;9843;48.882;12.592;2024-02-28T12:19:38;31.77;;;18.33;;
19414;SDS011;9843;48.882;12.592;2024-02-28T12:22:05;28.40;;;17.93;;
19414;SDS011;9843;48.882;12.592;2024-02-28T12:24:33;46.37;;;25.83;;
19414;SDS011;9843;48.882;12.592;2024-02-28T12:27:02;32.50;;;21.57;;
19414;SDS011;9843;48.882;12.592;2024-02-28T12:29:29;30.57;;;18.47;;
19414;SDS011;9843;48.882;12.592;2024-02-28T12:31:57;22.17;;;17.50;;
19414;SDS011;9843;48.882;12.592;2024-02-28T12:34:24;27.83;;;18.03;;
19414;SDS011;9843;48.882;12.592;2024-02-28T12:36:52;20.53;;;15.87;;
19414;SDS011;9843;48.882;12.592;2024-02-28T12:39:19;22.93;;;15.13;;
19414;SDS011;9843;48.882;12.592;2024-02-28T12:41:47;25.77;;;17.87;;
19414;SDS011;9843;48.882;12.592;2024-02-28T12:44:16;22.43;;;15.20;;
19414;SDS011;9843;48.882;12.592;2024-02-28T12:46:43;24.53;;;16.50;;
19414;SDS011;9843;48.882;12.592;2024-02-28T12:49:10;19.37;;;14.90;;
19414;SDS011;9843;48.882;12.592;2024-02-28T12:51:38;22.10;;;17.40;;
19414;SDS011;9843;48.882;12.592;2024-02-28T12:54:07;21.40;;;16.90;;
19414;SDS011;9843;48.882;12.592;2024-02-28T12:56:35;21.20;;;16.67;;
19414;SDS011;9843;48.882;12.592;2024-02-28T12:59:02;27.23;;;19.17;;
19414;SDS011;9843;48.882;12.592;2024-02-28T13:01:32;20.87;;;16.97;;
19414;SDS011;9843;48.882;12.592;2024-02-28T13:04:00;28.17;;;18.27;;
19414;SDS011;9843;48.882;12.592;2024-02-28T13:06:27;19.33;;;16.30;;
19414;SDS011;9843;48.882;12.592;2024-02-28T13:08:54;20.03;;;17.67;;
19414;SDS011;9843;48.882;12.592;2024-02-28T13:11:22;28.27;;;18.30;;
19414;SDS011;9843;48.882;12.592;2024-02-28T13:13:49;29.03;;;16.90;;
19414;SDS011;9843;48.882;12.592;2024-02-28T13:16:17;22.60;;;15.77;;
19414;SDS011;9843;48.882;12.592;2024-02-28T13:18:46;30.10;;;17.73;;
19414;SDS011;9843;48.882;12.592;2024-02-28T13:21:13;25.57;;;16.27;;
19414;SDS011;9843;48.882;12.592;2024-02-28T13:23:40;24.33;;;16.03;;
19414;SDS011;9843;48.882;12.592;2024-02-28T13:26:07;26.23;;;18.70;;
19414;SDS011;9843;48.882;12.592;2024-02-28T13:28:42;24.60;;;16.77;;
19414;SDS011;9843;48.882;12.592;2024-02-28T13:31:09;20.03;;;15.23;;
19414;SDS011;9843;48.882;12.592;2024-02-28T13:33:37;23.10;;;17.90;;
19414;SDS011;9843;48.882;12.592;2024-02-28T13:36:10;18.77;;;14.30;;
19414;SDS011;9843;48.882;12.592;2024-02-28T13:38:37;25.13;;;16.13;;
19414;SDS011;9843;48.882;12.592;2024-02-28T13:41:04;25.93;;;15.10;;
19414;SDS011;9843;48.882;12.592;2024-02-28T13:43:31;24.20;;;16.33;;
19414;SDS011;9843;48.882;12.592;2024-02-28T13:45:58;21.87;;;16.57;;
19414;SDS011;9843;48.882;12.592;2024-02-28T13:48:26;22.33;;;14.63;;
19414;SDS011;9843;48.882;12.592;2024-02-28T13:50:55;32.67;;;20.30;;
19414;SDS011;9843;48.882;12.592;2024-02-28T13:53:28;75.13;;;44.50;;
19414;SDS011;9843;48.882;12.592;2024-02-28T13:55:55;42.77;;;25.77;;
19414;SDS011;9843;48.882;12.592;2024-02-28T13:58:23;39.77;;;27.03;;
19414;SDS011;9843;48.882;12.592;2024-02-28T14:00:50;35.50;;;23.57;;
19414;SDS011;9843;48.882;12.592;2024-02-28T14:03:17;23.37;;;18.43;;
19414;SDS011;9843;48.882;12.592;2024-02-28T14:05:44;25.23;;;16.33;;
19414;SDS011;9843;48.882;12.592;2024-02-28T14:08:11;28.50;;;21.37;;
19414;SDS011;9843;48.882;12.592;2024-02-28T14:10:40;32.97;;;20.13;;
19414;SDS011;9843;48.882;12.592;2024-02-28T14:13:07;22.80;;;16.83;;
19414;SDS011;9843;48.882;12.592;2024-02-28T14:15:37;30.17;;;19.07;;
19414;SDS011;9843;48.882;12.592;2024-02-28T14:18:04;24.87;;;18.70;;
19414;SDS011;9843;48.882;12.592;2024-02-28T14:20:32;22.13;;;15.97;;
19414;SDS011;9843;48.882;12.592;2024-02-28T14:23:02;27.03;;;18.03;;
19414;SDS011;9843;48.882;12.592;2024-02-28T14:25:30;26.70;;;18.33;;